East Texas Regional Airport
KGGG : now visible

Airfield :











YOU CAN JOIN US ON...

 
LOGIN :

Register | Disclaimer

   EN    FR    IT 

 









Legend :    VFR   Marginal VFR   IFR   Intensive IFR   Very Intensive IFR
Visi :
Ceiling :
>= 8 km
>= 3000ft
5 to 8 km
1000 to 3000 ft
1500m to 5 km
500 to 1000 ft
800 to 1500m
200 to 500 ft
< 800m
< 200 ft
Symbols :   Thunderstorms  Fog  Heavy snow  Heavy precipitations  Wind > 20 kt






- Airport Elevation : 365 ft
- IATA code : GGG


KGGG - East Texas Regional

CURRENT METAR :
  • 270153Z 07004KT 10SM CLR 12/06 A2988 RMK AO2 SLP119 T01220056

EXPIRED METARs :
  • 270053Z 07003KT 10SM SCT075 BKN090 12/07 A2987 RMK AO2 SLP117 T01220072
  • 262353Z 11004KT 10SM BKN080 14/07 A2986 RMK AO2 SLP113 T01440072 10194 20139 58005

TAF KGGG
Valid from the 27 at 01:00 until the 28 at 00:00 UTC


270053Z 2701/2724 03005KT P6SM FEW070 FEW250
FM270300 35005KT P6SM BKN070
FM270900 33010KT P6SM BKN050
FM271300 35007KT P6SM BKN080
FM271500 34012G18KT P6SM FEW250
KZFW FIR / North America



MET'MAP, your aeronautical weather chart ! - Copyright ORBIFLY December 2007 - Disclaimer

ORBIFLY MET'MAP TEAM :

Programming & Development : Alexandra Zaïnal
Concept & original design : Baudouin d'Aumeries
Assistance for programming : Marc-Olivier Méhu
Technical & hardware support : Manuel Goepfert

Contact : metmap@orbifly.com




SOURCES & CREDITS :

   NOAA       Earth
Advisory